Portada
METAR-TAF:

METAR-TAF

Aeropuertos :

Pilsen, República Checa

latitud: 49-40-31N, longitud: 13-16-29E, altitud: 362 m

Observación

El informe se hizo hace 36 minutos, a las 06:30 UTC
Viento 1 kt con dirección variable
Temperatura 13°C
Humedad 88%
Presión 1008 hPa
Visibilidad 10 km o más
Cielo nuboso a una altura de 3800 ft
Cielo cubierto a una altura de 5100 ft

METAR: LKLN 070630Z AUTO VRB01KT 9999 BKN038 OVC051 13/11 Q1008

Hora: 09:06 (07:06 UTC)


TAF: falta

Observaciones y pronósticos meteorológicos de más de 4000 aeropuertos (mensajes METAR y TAF).

Los puntos amarillos y rojos representan las estaciones disponibles.

Ponga el ratón en el punto deseado para ver el nombre de la estación.

Haga clic para ver las observaciones y los pronósticos meteorológicos.

Para cambiar el mapa : haga clic en los botones verdes con una cruz de color negro para hacer un zoom, en el botón verde con un guión para alejar o en las flechas verdes para mapas adyacentes.


METAR-TAF: